sensor_id;sensor_type;location;lat;lon;timestamp;P1;durP1;ratioP1;P2;durP2;ratioP2
76667;SDS011;65585;51.166;16.922;2023-04-25T00:10:25;2.17;;;1.70;;
76667;SDS011;65585;51.166;16.922;2023-04-25T00:12:52;2.10;;;1.80;;
76667;SDS011;65585;51.166;16.922;2023-04-25T00:15:19;2.28;;;1.60;;
76667;SDS011;65585;51.166;16.922;2023-04-25T00:17:45;3.13;;;1.73;;
76667;SDS011;65585;51.166;16.922;2023-04-25T00:20:12;2.03;;;1.65;;
76667;SDS011;65585;51.166;16.922;2023-04-25T00:22:38;3.10;;;1.80;;
76667;SDS011;65585;51.166;16.922;2023-04-25T00:25:05;2.38;;;1.50;;
76667;SDS011;65585;51.166;16.922;2023-04-25T00:35:17;3.25;;;2.00;;
76667;SDS011;65585;51.166;16.922;2023-04-25T00:37:44;3.17;;;1.38;;
76667;SDS011;65585;51.166;16.922;2023-04-25T00:40:11;2.08;;;1.58;;
76667;SDS011;65585;51.166;16.922;2023-04-25T00:42:37;1.90;;;1.70;;
76667;SDS011;65585;51.166;16.922;2023-04-25T00:45:04;2.95;;;1.80;;
76667;SDS011;65585;51.166;16.922;2023-04-25T00:47:32;3.65;;;1.88;;
76667;SDS011;65585;51.166;16.922;2023-04-25T00:49:58;3.88;;;1.83;;
76667;SDS011;65585;51.166;16.922;2023-04-25T01:02:40;3.00;;;2.10;;
76667;SDS011;65585;51.166;16.922;2023-04-25T01:05:08;2.40;;;1.70;;
76667;SDS011;65585;51.166;16.922;2023-04-25T01:07:34;2.58;;;2.05;;
76667;SDS011;65585;51.166;16.922;2023-04-25T01:10:01;2.85;;;1.90;;
76667;SDS011;65585;51.166;16.922;2023-04-25T01:12:27;2.38;;;1.80;;
76667;SDS011;65585;51.166;16.922;2023-04-25T01:14:54;2.92;;;1.85;;
76667;SDS011;65585;51.166;16.922;2023-04-25T01:27:33;5.80;;;3.08;;
76667;SDS011;65585;51.166;16.922;2023-04-25T01:30:00;4.55;;;2.40;;
76667;SDS011;65585;51.166;16.922;2023-04-25T01:32:26;3.53;;;2.35;;
76667;SDS011;65585;51.166;16.922;2023-04-25T01:34:52;3.17;;;2.47;;
76667;SDS011;65585;51.166;16.922;2023-04-25T01:37:18;3.67;;;2.55;;
76667;SDS011;65585;51.166;16.922;2023-04-25T01:39:44;3.40;;;2.47;;
76667;SDS011;65585;51.166;16.922;2023-04-25T01:53:12;3.47;;;2.42;;
76667;SDS011;65585;51.166;16.922;2023-04-25T01:55:40;3.65;;;2.60;;
76667;SDS011;65585;51.166;16.922;2023-04-25T01:58:06;3.72;;;2.58;;
76667;SDS011;65585;51.166;16.922;2023-04-25T02:00:38;3.78;;;2.72;;
76667;SDS011;65585;51.166;16.922;2023-04-25T02:05:35;6.22;;;2.70;;
76667;SDS011;65585;51.166;16.922;2023-04-25T02:08:03;5.70;;;3.25;;
76667;SDS011;65585;51.166;16.922;2023-04-25T02:20:46;4.82;;;3.03;;
76667;SDS011;65585;51.166;16.922;2023-04-25T02:23:12;4.43;;;3.10;;
76667;SDS011;65585;51.166;16.922;2023-04-25T02:25:41;4.75;;;3.20;;
76667;SDS011;65585;51.166;16.922;2023-04-25T02:28:09;5.82;;;3.50;;
76667;SDS011;65585;51.166;16.922;2023-04-25T02:30:35;6.72;;;3.30;;
76667;SDS011;65585;51.166;16.922;2023-04-25T02:43:23;4.43;;;3.25;;
76667;SDS011;65585;51.166;16.922;2023-04-25T02:45:49;5.07;;;3.05;;
76667;SDS011;65585;51.166;16.922;2023-04-25T02:48:15;4.70;;;3.13;;
76667;SDS011;65585;51.166;16.922;2023-04-25T02:50:41;4.68;;;3.10;;
76667;SDS011;65585;51.166;16.922;2023-04-25T02:53:07;3.70;;;2.88;;
76667;SDS011;65585;51.166;16.922;2023-04-25T02:55:34;6.80;;;3.42;;
76667;SDS011;65585;51.166;16.922;2023-04-25T03:08:17;5.47;;;3.70;;
76667;SDS011;65585;51.166;16.922;2023-04-25T03:10:44;5.70;;;3.65;;
76667;SDS011;65585;51.166;16.922;2023-04-25T03:13:10;5.93;;;4.15;;
76667;SDS011;65585;51.166;16.922;2023-04-25T03:15:37;5.65;;;4.07;;
76667;SDS011;65585;51.166;16.922;2023-04-25T03:18:03;7.28;;;3.60;;
76667;SDS011;65585;51.166;16.922;2023-04-25T03:20:32;6.72;;;3.65;;
76667;SDS011;65585;51.166;16.922;2023-04-25T03:22:58;7.10;;;4.07;;
76667;SDS011;65585;51.166;16.922;2023-04-25T03:35:37;6.47;;;4.07;;
76667;SDS011;65585;51.166;16.922;2023-04-25T03:38:04;6.05;;;4.10;;
76667;SDS011;65585;51.166;16.922;2023-04-25T03:40:30;5.95;;;4.20;;
76667;SDS011;65585;51.166;16.922;2023-04-25T03:42:56;8.65;;;4.97;;
76667;SDS011;65585;51.166;16.922;2023-04-25T03:45:23;6.47;;;4.13;;
76667;SDS011;65585;51.166;16.922;2023-04-25T03:47:49;8.18;;;4.07;;
76667;SDS011;65585;51.166;16.922;2023-04-25T03:50:15;11.30;;;4.57;;
76667;SDS011;65585;51.166;16.922;2023-04-25T03:52:42;7.65;;;4.80;;
76667;SDS011;65585;51.166;16.922;2023-04-25T04:05:21;6.22;;;4.32;;
76667;SDS011;65585;51.166;16.922;2023-04-25T04:07:48;10.57;;;4.53;;
76667;SDS011;65585;51.166;16.922;2023-04-25T04:10:13;6.78;;;4.60;;
76667;SDS011;65585;51.166;16.922;2023-04-25T04:12:40;5.93;;;4.15;;
76667;SDS011;65585;51.166;16.922;2023-04-25T04:15:06;8.00;;;4.90;;
76667;SDS011;65585;51.166;16.922;2023-04-25T04:17:33;7.40;;;4.68;;
76667;SDS011;65585;51.166;16.922;2023-04-25T04:19:59;6.82;;;4.82;;
76667;SDS011;65585;51.166;16.922;2023-04-25T04:22:26;8.13;;;4.82;;
76667;SDS011;65585;51.166;16.922;2023-04-25T04:24:52;8.18;;;4.63;;
76667;SDS011;65585;51.166;16.922;2023-04-25T04:27:18;8.10;;;4.90;;
76667;SDS011;65585;51.166;16.922;2023-04-25T04:29:45;8.15;;;4.30;;
76667;SDS011;65585;51.166;16.922;2023-04-25T04:40:14;6.47;;;4.45;;
76667;SDS011;65585;51.166;16.922;2023-04-25T04:42:42;8.70;;;5.55;;
76667;SDS011;65585;51.166;16.922;2023-04-25T04:45:10;7.93;;;5.15;;
76667;SDS011;65585;51.166;16.922;2023-04-25T04:47:38;6.78;;;4.70;;
76667;SDS011;65585;51.166;16.922;2023-04-25T04:50:05;7.70;;;5.28;;
76667;SDS011;65585;51.166;16.922;2023-04-25T04:52:38;11.88;;;5.40;;
76667;SDS011;65585;51.166;16.922;2023-04-25T04:55:04;11.00;;;5.47;;
76667;SDS011;65585;51.166;16.922;2023-04-25T04:57:31;8.65;;;5.28;;
76667;SDS011;65585;51.166;16.922;2023-04-25T04:59:58;9.10;;;5.68;;
76667;SDS011;65585;51.166;16.922;2023-04-25T05:02:24;8.68;;;5.00;;
76667;SDS011;65585;51.166;16.922;2023-04-25T05:15:03;8.57;;;5.43;;
76667;SDS011;65585;51.166;16.922;2023-04-25T05:17:30;7.95;;;5.05;;
76667;SDS011;65585;51.166;16.922;2023-04-25T05:19:56;7.88;;;4.95;;
76667;SDS011;65585;51.166;16.922;2023-04-25T05:22:22;8.10;;;5.20;;
76667;SDS011;65585;51.166;16.922;2023-04-25T05:24:48;10.20;;;4.70;;
76667;SDS011;65585;51.166;16.922;2023-04-25T05:27:18;6.47;;;4.40;;
76667;SDS011;65585;51.166;16.922;2023-04-25T05:29:45;9.50;;;5.50;;
76667;SDS011;65585;51.166;16.922;2023-04-25T05:32:11;8.20;;;5.13;;
76667;SDS011;65585;51.166;16.922;2023-04-25T05:34:37;9.35;;;4.78;;
76667;SDS011;65585;51.166;16.922;2023-04-25T05:37:04;6.40;;;4.80;;
76667;SDS011;65585;51.166;16.922;2023-04-25T05:52:32;8.32;;;4.60;;
76667;SDS011;65585;51.166;16.922;2023-04-25T05:54:58;9.82;;;5.18;;
76667;SDS011;65585;51.166;16.922;2023-04-25T05:57:25;5.80;;;4.25;;
76667;SDS011;65585;51.166;16.922;2023-04-25T05:59:52;6.65;;;4.75;;
76667;SDS011;65585;51.166;16.922;2023-04-25T06:02:20;11.18;;;4.50;;
76667;SDS011;65585;51.166;16.922;2023-04-25T06:04:47;5.00;;;4.00;;
76667;SDS011;65585;51.166;16.922;2023-04-25T06:07:16;8.63;;;4.05;;
76667;SDS011;65585;51.166;16.922;2023-04-25T06:17:28;7.47;;;4.45;;
76667;SDS011;65585;51.166;16.922;2023-04-25T06:19:55;6.65;;;4.18;;
76667;SDS011;65585;51.166;16.922;2023-04-25T06:22:21;7.30;;;4.50;;
76667;SDS011;65585;51.166;16.922;2023-04-25T06:24:47;7.93;;;4.50;;
76667;SDS011;65585;51.166;16.922;2023-04-25T06:27:13;8.50;;;4.00;;
76667;SDS011;65585;51.166;16.922;2023-04-25T06:29:39;5.60;;;3.67;;
76667;SDS011;65585;51.166;16.922;2023-04-25T06:32:06;4.78;;;3.70;;
76667;SDS011;65585;51.166;16.922;2023-04-25T06:34:32;5.38;;;3.83;;
76667;SDS011;65585;51.166;16.922;2023-04-25T06:48:50;5.20;;;3.30;;
76667;SDS011;65585;51.166;16.922;2023-04-25T06:55:25;5.10;;;2.92;;
76667;SDS011;65585;51.166;16.922;2023-04-25T06:58:28;6.32;;;3.13;;
76667;SDS011;65585;51.166;16.922;2023-04-25T07:00:57;10.52;;;3.05;;
76667;SDS011;65585;51.166;16.922;2023-04-25T07:06:29;4.80;;;2.90;;
76667;SDS011;65585;51.166;16.922;2023-04-25T07:09:08;7.15;;;2.70;;
76667;SDS011;65585;51.166;16.922;2023-04-25T07:11:51;5.00;;;2.60;;
76667;SDS011;65585;51.166;16.922;2023-04-25T07:14:23;8.98;;;2.83;;
76667;SDS011;65585;51.166;16.922;2023-04-25T07:17:50;5.00;;;2.55;;
76667;SDS011;65585;51.166;16.922;2023-04-25T07:21:12;3.83;;;2.70;;
76667;SDS011;65585;51.166;16.922;2023-04-25T07:41:18;5.97;;;3.85;;
76667;SDS011;65585;51.166;16.922;2023-04-25T07:43:45;6.53;;;3.80;;
76667;SDS011;65585;51.166;16.922;2023-04-25T07:46:11;5.45;;;3.70;;
76667;SDS011;65585;51.166;16.922;2023-04-25T07:48:37;12.50;;;4.28;;
76667;SDS011;65585;51.166;16.922;2023-04-25T07:51:03;6.90;;;4.22;;
76667;SDS011;65585;51.166;16.922;2023-04-25T07:53:33;6.25;;;4.38;;
76667;SDS011;65585;51.166;16.922;2023-04-25T07:56:01;7.57;;;5.07;;
76667;SDS011;65585;51.166;16.922;2023-04-25T08:09:01;6.93;;;4.65;;
76667;SDS011;65585;51.166;16.922;2023-04-25T08:11:27;9.98;;;4.03;;
76667;SDS011;65585;51.166;16.922;2023-04-25T08:13:53;9.55;;;4.93;;
76667;SDS011;65585;51.166;16.922;2023-04-25T08:16:19;7.07;;;4.07;;
76667;SDS011;65585;51.166;16.922;2023-04-25T08:18:46;5.78;;;4.10;;
76667;SDS011;65585;51.166;16.922;2023-04-25T08:21:12;6.63;;;4.63;;
76667;SDS011;65585;51.166;16.922;2023-04-25T08:26:33;6.93;;;4.53;;
76667;SDS011;65585;51.166;16.922;2023-04-25T08:29:09;6.57;;;4.03;;
76667;SDS011;65585;51.166;16.922;2023-04-25T08:32:01;5.78;;;4.55;;
76667;SDS011;65585;51.166;16.922;2023-04-25T08:34:51;6.10;;;4.18;;
76667;SDS011;65585;51.166;16.922;2023-04-25T08:37:28;8.45;;;4.30;;
76667;SDS011;65585;51.166;16.922;2023-04-25T08:39:54;7.72;;;4.32;;
76667;SDS011;65585;51.166;16.922;2023-04-25T08:42:21;7.85;;;5.43;;
76667;SDS011;65585;51.166;16.922;2023-04-25T08:44:50;6.28;;;4.55;;
76667;SDS011;65585;51.166;16.922;2023-04-25T08:47:19;8.82;;;4.43;;
76667;SDS011;65585;51.166;16.922;2023-04-25T08:49:47;7.03;;;4.20;;
76667;SDS011;65585;51.166;16.922;2023-04-25T08:52:15;8.57;;;4.65;;
76667;SDS011;65585;51.166;16.922;2023-04-25T08:54:51;8.50;;;5.22;;
76667;SDS011;65585;51.166;16.922;2023-04-25T09:00:40;5.55;;;4.55;;
76667;SDS011;65585;51.166;16.922;2023-04-25T09:03:31;8.35;;;5.03;;
76667;SDS011;65585;51.166;16.922;2023-04-25T09:06:04;8.30;;;4.75;;
76667;SDS011;65585;51.166;16.922;2023-04-25T09:09:05;6.43;;;4.60;;
76667;SDS011;65585;51.166;16.922;2023-04-25T09:11:51;6.82;;;5.40;;
76667;SDS011;65585;51.166;16.922;2023-04-25T09:14:22;8.23;;;4.55;;
76667;SDS011;65585;51.166;16.922;2023-04-25T09:19:28;6.15;;;5.07;;
76667;SDS011;65585;51.166;16.922;2023-04-25T09:21:57;6.82;;;5.15;;
76667;SDS011;65585;51.166;16.922;2023-04-25T09:35:37;7.93;;;5.35;;
76667;SDS011;65585;51.166;16.922;2023-04-25T09:38:08;8.90;;;5.53;;
76667;SDS011;65585;51.166;16.922;2023-04-25T09:40:34;6.97;;;5.55;;
76667;SDS011;65585;51.166;16.922;2023-04-25T09:43:09;6.07;;;4.80;;
76667;SDS011;65585;51.166;16.922;2023-04-25T09:45:42;10.50;;;5.55;;
76667;SDS011;65585;51.166;16.922;2023-04-25T09:58:32;8.85;;;5.40;;
76667;SDS011;65585;51.166;16.922;2023-04-25T10:01:01;6.72;;;5.03;;
76667;SDS011;65585;51.166;16.922;2023-04-25T10:03:30;6.43;;;5.25;;
76667;SDS011;65585;51.166;16.922;2023-04-25T10:06:01;6.15;;;4.80;;
76667;SDS011;65585;51.166;16.922;2023-04-25T10:22:56;6.68;;;5.20;;
76667;SDS011;65585;51.166;16.922;2023-04-25T10:25:27;8.25;;;5.18;;
76667;SDS011;65585;51.166;16.922;2023-04-25T10:27:53;6.45;;;4.95;;
76667;SDS011;65585;51.166;16.922;2023-04-25T10:30:20;7.55;;;4.82;;
76667;SDS011;65585;51.166;16.922;2023-04-25T10:32:46;8.00;;;5.05;;
76667;SDS011;65585;51.166;16.922;2023-04-25T10:40:25;7.95;;;4.43;;
76667;SDS011;65585;51.166;16.922;2023-04-25T10:42:52;4.72;;;3.38;;
76667;SDS011;65585;51.166;16.922;2023-04-25T10:45:20;5.78;;;4.00;;
76667;SDS011;65585;51.166;16.922;2023-04-25T10:47:46;6.80;;;4.05;;
76667;SDS011;65585;51.166;16.922;2023-04-25T10:50:16;4.05;;;3.50;;
76667;SDS011;65585;51.166;16.922;2023-04-25T10:52:42;5.80;;;3.25;;
76667;SDS011;65585;51.166;16.922;2023-04-25T10:55:10;7.43;;;3.67;;
76667;SDS011;65585;51.166;16.922;2023-04-25T10:57:37;4.47;;;3.35;;
76667;SDS011;65585;51.166;16.922;2023-04-25T11:02:30;5.35;;;2.80;;
76667;SDS011;65585;51.166;16.922;2023-04-25T11:04:57;3.33;;;2.40;;
76667;SDS011;65585;51.166;16.922;2023-04-25T11:09:51;4.22;;;2.65;;
76667;SDS011;65585;51.166;16.922;2023-04-25T11:12:17;3.72;;;2.17;;
76667;SDS011;65585;51.166;16.922;2023-04-25T11:14:44;3.05;;;2.13;;
76667;SDS011;65585;51.166;16.922;2023-04-25T11:17:11;3.92;;;2.25;;
76667;SDS011;65585;51.166;16.922;2023-04-25T11:19:37;2.90;;;2.30;;
76667;SDS011;65585;51.166;16.922;2023-04-25T11:22:03;3.20;;;2.17;;
76667;SDS011;65585;51.166;16.922;2023-04-25T11:24:30;3.90;;;2.22;;
76667;SDS011;65585;51.166;16.922;2023-04-25T11:27:01;4.38;;;2.03;;
76667;SDS011;65585;51.166;16.922;2023-04-25T11:29:32;2.55;;;2.00;;
76667;SDS011;65585;51.166;16.922;2023-04-25T11:31:58;2.50;;;1.95;;
76667;SDS011;65585;51.166;16.922;2023-04-25T11:36:53;3.80;;;2.20;;
76667;SDS011;65585;51.166;16.922;2023-04-25T11:39:19;2.53;;;2.20;;
76667;SDS011;65585;51.166;16.922;2023-04-25T11:41:46;4.35;;;2.20;;
76667;SDS011;65585;51.166;16.922;2023-04-25T11:44:15;4.95;;;2.45;;
76667;SDS011;65585;51.166;16.922;2023-04-25T11:46:42;3.17;;;2.10;;
76667;SDS011;65585;51.166;16.922;2023-04-25T11:51:42;2.80;;;1.73;;
76667;SDS011;65585;51.166;16.922;2023-04-25T11:54:09;2.25;;;1.98;;
76667;SDS011;65585;51.166;16.922;2023-04-25T11:56:37;3.30;;;2.00;;
76667;SDS011;65585;51.166;16.922;2023-04-25T11:59:06;3.67;;;1.90;;
76667;SDS011;65585;51.166;16.922;2023-04-25T12:01:33;2.88;;;2.20;;
76667;SDS011;65585;51.166;16.922;2023-04-25T12:06:46;2.15;;;1.92;;
76667;SDS011;65585;51.166;16.922;2023-04-25T12:09:14;2.85;;;1.90;;
76667;SDS011;65585;51.166;16.922;2023-04-25T12:14:09;3.53;;;2.30;;
76667;SDS011;65585;51.166;16.922;2023-04-25T12:16:40;3.50;;;2.22;;
76667;SDS011;65585;51.166;16.922;2023-04-25T12:19:13;3.28;;;2.20;;
76667;SDS011;65585;51.166;16.922;2023-04-25T12:21:40;3.28;;;2.00;;
76667;SDS011;65585;51.166;16.922;2023-04-25T12:24:14;3.80;;;2.30;;
76667;SDS011;65585;51.166;16.922;2023-04-25T12:29:28;2.40;;;2.03;;
76667;SDS011;65585;51.166;16.922;2023-04-25T12:31:55;3.40;;;2.10;;
76667;SDS011;65585;51.166;16.922;2023-04-25T12:34:22;3.28;;;2.42;;
76667;SDS011;65585;51.166;16.922;2023-04-25T12:36:49;6.57;;;2.10;;
76667;SDS011;65585;51.166;16.922;2023-04-25T12:39:20;2.72;;;2.10;;
76667;SDS011;65585;51.166;16.922;2023-04-25T12:41:50;3.28;;;2.15;;
76667;SDS011;65585;51.166;16.922;2023-04-25T12:44:19;4.30;;;2.53;;
76667;SDS011;65585;51.166;16.922;2023-04-25T12:46:46;2.90;;;2.25;;
76667;SDS011;65585;51.166;16.922;2023-04-25T12:49:13;3.72;;;2.50;;
76667;SDS011;65585;51.166;16.922;2023-04-25T12:51:40;3.20;;;2.30;;
76667;SDS011;65585;51.166;16.922;2023-04-25T12:54:07;3.92;;;2.25;;
76667;SDS011;65585;51.166;16.922;2023-04-25T12:56:34;4.00;;;2.20;;
76667;SDS011;65585;51.166;16.922;2023-04-25T12:59:01;2.75;;;2.17;;
76667;SDS011;65585;51.166;16.922;2023-04-25T13:01:30;3.47;;;2.33;;
76667;SDS011;65585;51.166;16.922;2023-04-25T13:03:57;2.70;;;2.20;;
76667;SDS011;65585;51.166;16.922;2023-04-25T13:06:23;2.78;;;2.15;;
76667;SDS011;65585;51.166;16.922;2023-04-25T13:08:50;2.70;;;2.10;;
76667;SDS011;65585;51.166;16.922;2023-04-25T13:11:16;2.83;;;2.38;;
76667;SDS011;65585;51.166;16.922;2023-04-25T13:13:42;4.43;;;2.15;;
76667;SDS011;65585;51.166;16.922;2023-04-25T13:16:09;4.50;;;2.35;;
76667;SDS011;65585;51.166;16.922;2023-04-25T13:18:35;3.95;;;2.17;;
76667;SDS011;65585;51.166;16.922;2023-04-25T13:21:01;3.30;;;2.30;;
76667;SDS011;65585;51.166;16.922;2023-04-25T13:23:29;5.80;;;2.20;;
76667;SDS011;65585;51.166;16.922;2023-04-25T13:25:56;2.70;;;2.40;;
76667;SDS011;65585;51.166;16.922;2023-04-25T13:28:27;3.47;;;2.33;;
76667;SDS011;65585;51.166;16.922;2023-04-25T13:30:54;3.55;;;2.47;;
76667;SDS011;65585;51.166;16.922;2023-04-25T13:33:21;4.25;;;2.28;;
76667;SDS011;65585;51.166;16.922;2023-04-25T13:35:47;2.33;;;2.10;;
76667;SDS011;65585;51.166;16.922;2023-04-25T13:38:23;3.38;;;2.28;;
76667;SDS011;65585;51.166;16.922;2023-04-25T13:40:51;4.10;;;2.00;;
76667;SDS011;65585;51.166;16.922;2023-04-25T13:43:20;3.65;;;2.13;;
76667;SDS011;65585;51.166;16.922;2023-04-25T13:45:47;4.00;;;2.28;;
76667;SDS011;65585;51.166;16.922;2023-04-25T13:48:14;3.67;;;2.08;;
76667;SDS011;65585;51.166;16.922;2023-04-25T13:50:40;3.35;;;2.08;;
76667;SDS011;65585;51.166;16.922;2023-04-25T13:53:06;2.95;;;2.00;;
76667;SDS011;65585;51.166;16.922;2023-04-25T13:55:34;3.22;;;2.28;;
76667;SDS011;65585;51.166;16.922;2023-04-25T13:58:04;2.90;;;2.10;;
76667;SDS011;65585;51.166;16.922;2023-04-25T14:00:34;3.95;;;2.10;;
76667;SDS011;65585;51.166;16.922;2023-04-25T14:03:09;3.53;;;2.20;;
76667;SDS011;65585;51.166;16.922;2023-04-25T14:05:35;3.55;;;2.08;;
76667;SDS011;65585;51.166;16.922;2023-04-25T14:08:06;4.20;;;2.25;;
76667;SDS011;65585;51.166;16.922;2023-04-25T14:13:03;2.78;;;2.10;;
76667;SDS011;65585;51.166;16.922;2023-04-25T14:15:31;4.15;;;2.33;;
76667;SDS011;65585;51.166;16.922;2023-04-25T14:17:58;2.80;;;2.20;;
76667;SDS011;65585;51.166;16.922;2023-04-25T14:20:24;3.50;;;2.30;;
76667;SDS011;65585;51.166;16.922;2023-04-25T14:22:51;4.18;;;2.05;;
76667;SDS011;65585;51.166;16.922;2023-04-25T14:25:19;2.60;;;1.90;;
76667;SDS011;65585;51.166;16.922;2023-04-25T14:27:45;2.95;;;2.30;;
76667;SDS011;65585;51.166;16.922;2023-04-25T14:30:18;3.42;;;2.38;;
76667;SDS011;65585;51.166;16.922;2023-04-25T14:32:45;3.22;;;2.15;;
76667;SDS011;65585;51.166;16.922;2023-04-25T14:35:11;5.72;;;2.50;;
76667;SDS011;65585;51.166;16.922;2023-04-25T14:37:38;5.05;;;2.70;;
76667;SDS011;65585;51.166;16.922;2023-04-25T14:40:05;4.70;;;2.13;;
76667;SDS011;65585;51.166;16.922;2023-04-25T14:42:33;3.63;;;2.40;;
76667;SDS011;65585;51.166;16.922;2023-04-25T14:44:59;4.47;;;2.30;;
76667;SDS011;65585;51.166;16.922;2023-04-25T14:47:25;5.13;;;2.65;;
76667;SDS011;65585;51.166;16.922;2023-04-25T14:49:51;3.78;;;2.67;;
76667;SDS011;65585;51.166;16.922;2023-04-25T14:52:20;4.15;;;2.47;;
76667;SDS011;65585;51.166;16.922;2023-04-25T14:54:46;3.08;;;2.25;;
76667;SDS011;65585;51.166;16.922;2023-04-25T14:57:13;5.95;;;2.67;;
76667;SDS011;65585;51.166;16.922;2023-04-25T14:59:39;3.17;;;2.28;;
76667;SDS011;65585;51.166;16.922;2023-04-25T15:02:05;5.03;;;2.45;;
76667;SDS011;65585;51.166;16.922;2023-04-25T15:04:31;5.22;;;2.47;;
76667;SDS011;65585;51.166;16.922;2023-04-25T15:06:58;5.15;;;2.78;;
76667;SDS011;65585;51.166;16.922;2023-04-25T15:09:24;5.15;;;2.42;;
76667;SDS011;65585;51.166;16.922;2023-04-25T15:11:51;5.63;;;2.80;;
76667;SDS011;65585;51.166;16.922;2023-04-25T15:14:17;6.03;;;2.90;;
76667;SDS011;65585;51.166;16.922;2023-04-25T15:16:43;3.60;;;2.50;;
76667;SDS011;65585;51.166;16.922;2023-04-25T15:19:09;3.80;;;2.40;;
76667;SDS011;65585;51.166;16.922;2023-04-25T15:21:36;4.28;;;2.97;;
76667;SDS011;65585;51.166;16.922;2023-04-25T15:24:02;5.53;;;2.90;;
76667;SDS011;65585;51.166;16.922;2023-04-25T15:26:29;9.18;;;3.15;;
76667;SDS011;65585;51.166;16.922;2023-04-25T15:28:55;5.15;;;2.60;;
76667;SDS011;65585;51.166;16.922;2023-04-25T15:31:21;4.45;;;2.50;;
76667;SDS011;65585;51.166;16.922;2023-04-25T15:33:48;6.22;;;2.72;;
76667;SDS011;65585;51.166;16.922;2023-04-25T15:36:14;6.90;;;3.25;;
76667;SDS011;65585;51.166;16.922;2023-04-25T15:38:42;5.45;;;3.35;;
76667;SDS011;65585;51.166;16.922;2023-04-25T15:41:08;5.38;;;3.05;;
76667;SDS011;65585;51.166;16.922;2023-04-25T15:43:34;5.80;;;3.05;;
76667;SDS011;65585;51.166;16.922;2023-04-25T15:46:04;4.70;;;3.38;;
76667;SDS011;65585;51.166;16.922;2023-04-25T15:48:32;7.30;;;3.95;;
76667;SDS011;65585;51.166;16.922;2023-04-25T15:50:59;6.03;;;3.42;;
76667;SDS011;65585;51.166;16.922;2023-04-25T15:53:25;5.53;;;3.17;;
76667;SDS011;65585;51.166;16.922;2023-04-25T15:55:51;5.40;;;3.42;;
76667;SDS011;65585;51.166;16.922;2023-04-25T15:58:17;4.18;;;3.15;;
76667;SDS011;65585;51.166;16.922;2023-04-25T16:00:44;4.70;;;3.20;;
76667;SDS011;65585;51.166;16.922;2023-04-25T16:03:13;5.22;;;3.20;;
76667;SDS011;65585;51.166;16.922;2023-04-25T16:05:39;5.13;;;3.17;;
76667;SDS011;65585;51.166;16.922;2023-04-25T16:08:05;8.50;;;3.38;;
76667;SDS011;65585;51.166;16.922;2023-04-25T16:10:32;4.47;;;2.80;;
76667;SDS011;65585;51.166;16.922;2023-04-25T16:12:58;4.20;;;2.83;;
76667;SDS011;65585;51.166;16.922;2023-04-25T16:15:25;4.15;;;2.85;;
76667;SDS011;65585;51.166;16.922;2023-04-25T16:17:51;4.50;;;2.70;;
76667;SDS011;65585;51.166;16.922;2023-04-25T16:20:17;5.25;;;2.50;;
76667;SDS011;65585;51.166;16.922;2023-04-25T16:22:43;7.55;;;2.67;;
76667;SDS011;65585;51.166;16.922;2023-04-25T16:25:10;4.20;;;3.22;;
76667;SDS011;65585;51.166;16.922;2023-04-25T16:27:40;3.22;;;2.30;;
76667;SDS011;65585;51.166;16.922;2023-04-25T16:30:07;3.63;;;2.65;;
76667;SDS011;65585;51.166;16.922;2023-04-25T16:32:34;3.20;;;2.25;;
76667;SDS011;65585;51.166;16.922;2023-04-25T16:35:01;4.35;;;2.72;;
76667;SDS011;65585;51.166;16.922;2023-04-25T16:37:27;4.95;;;2.90;;
76667;SDS011;65585;51.166;16.922;2023-04-25T16:39:54;3.85;;;3.10;;
76667;SDS011;65585;51.166;16.922;2023-04-25T16:42:20;3.97;;;2.75;;
76667;SDS011;65585;51.166;16.922;2023-04-25T16:44:46;4.65;;;3.17;;
76667;SDS011;65585;51.166;16.922;2023-04-25T16:47:12;7.35;;;3.13;;
76667;SDS011;65585;51.166;16.922;2023-04-25T16:49:39;4.32;;;2.33;;
76667;SDS011;65585;51.166;16.922;2023-04-25T16:52:05;5.70;;;2.80;;
76667;SDS011;65585;51.166;16.922;2023-04-25T16:54:31;4.90;;;2.33;;
76667;SDS011;65585;51.166;16.922;2023-04-25T16:56:58;4.72;;;2.83;;
76667;SDS011;65585;51.166;16.922;2023-04-25T16:59:24;5.22;;;2.92;;
76667;SDS011;65585;51.166;16.922;2023-04-25T17:01:52;6.88;;;3.67;;
76667;SDS011;65585;51.166;16.922;2023-04-25T17:04:18;6.07;;;3.22;;
76667;SDS011;65585;51.166;16.922;2023-04-25T17:06:44;8.90;;;3.53;;
76667;SDS011;65585;51.166;16.922;2023-04-25T17:09:10;4.45;;;3.60;;
76667;SDS011;65585;51.166;16.922;2023-04-25T17:11:36;6.70;;;3.22;;
76667;SDS011;65585;51.166;16.922;2023-04-25T17:14:03;4.57;;;2.88;;
76667;SDS011;65585;51.166;16.922;2023-04-25T17:16:33;4.97;;;3.50;;
76667;SDS011;65585;51.166;16.922;2023-04-25T17:19:01;5.85;;;3.17;;
76667;SDS011;65585;51.166;16.922;2023-04-25T17:21:29;7.20;;;3.80;;
76667;SDS011;65585;51.166;16.922;2023-04-25T17:23:56;5.78;;;3.70;;
76667;SDS011;65585;51.166;16.922;2023-04-25T17:26:24;6.53;;;3.80;;
76667;SDS011;65585;51.166;16.922;2023-04-25T17:28:51;7.30;;;4.07;;
76667;SDS011;65585;51.166;16.922;2023-04-25T17:31:18;5.25;;;3.60;;
76667;SDS011;65585;51.166;16.922;2023-04-25T17:33:44;6.55;;;3.63;;
76667;SDS011;65585;51.166;16.922;2023-04-25T17:36:10;6.22;;;3.42;;
76667;SDS011;65585;51.166;16.922;2023-04-25T17:38:36;6.05;;;3.90;;
76667;SDS011;65585;51.166;16.922;2023-04-25T17:41:03;5.72;;;3.05;;
76667;SDS011;65585;51.166;16.922;2023-04-25T17:43:30;6.70;;;3.30;;
76667;SDS011;65585;51.166;16.922;2023-04-25T17:45:57;6.60;;;3.55;;
76667;SDS011;65585;51.166;16.922;2023-04-25T17:48:24;5.78;;;3.58;;
76667;SDS011;65585;51.166;16.922;2023-04-25T17:50:51;10.27;;;4.15;;
76667;SDS011;65585;51.166;16.922;2023-04-25T17:53:17;10.32;;;3.92;;
76667;SDS011;65585;51.166;16.922;2023-04-25T17:55:43;6.80;;;3.42;;
76667;SDS011;65585;51.166;16.922;2023-04-25T17:58:10;7.88;;;3.50;;
76667;SDS011;65585;51.166;16.922;2023-04-25T18:00:39;8.95;;;3.83;;
76667;SDS011;65585;51.166;16.922;2023-04-25T18:03:05;8.23;;;3.42;;
76667;SDS011;65585;51.166;16.922;2023-04-25T18:05:31;8.90;;;3.35;;
76667;SDS011;65585;51.166;16.922;2023-04-25T18:07:58;6.57;;;3.38;;
76667;SDS011;65585;51.166;16.922;2023-04-25T18:10:24;7.07;;;3.60;;
76667;SDS011;65585;51.166;16.922;2023-04-25T18:12:50;9.73;;;3.90;;
76667;SDS011;65585;51.166;16.922;2023-04-25T18:15:16;9.13;;;3.83;;
76667;SDS011;65585;51.166;16.922;2023-04-25T18:17:43;6.03;;;3.63;;
76667;SDS011;65585;51.166;16.922;2023-04-25T18:20:10;8.55;;;4.05;;
76667;SDS011;65585;51.166;16.922;2023-04-25T18:22:44;7.63;;;3.92;;
76667;SDS011;65585;51.166;16.922;2023-04-25T18:25:11;7.20;;;3.90;;
76667;SDS011;65585;51.166;16.922;2023-04-25T18:27:38;10.10;;;3.42;;
76667;SDS011;65585;51.166;16.922;2023-04-25T18:30:06;7.13;;;4.18;;
76667;SDS011;65585;51.166;16.922;2023-04-25T18:32:34;7.35;;;3.75;;
76667;SDS011;65585;51.166;16.922;2023-04-25T18:35:00;15.38;;;4.50;;
76667;SDS011;65585;51.166;16.922;2023-04-25T18:37:26;6.90;;;3.95;;
76667;SDS011;65585;51.166;16.922;2023-04-25T18:39:53;10.00;;;4.93;;
76667;SDS011;65585;51.166;16.922;2023-04-25T18:42:19;8.52;;;4.50;;
76667;SDS011;65585;51.166;16.922;2023-04-25T18:44:45;9.07;;;4.38;;
76667;SDS011;65585;51.166;16.922;2023-04-25T18:47:11;8.10;;;4.15;;
76667;SDS011;65585;51.166;16.922;2023-04-25T18:49:38;7.53;;;3.58;;
76667;SDS011;65585;51.166;16.922;2023-04-25T18:52:05;7.75;;;5.72;;
76667;SDS011;65585;51.166;16.922;2023-04-25T18:54:36;8.23;;;4.35;;
76667;SDS011;65585;51.166;16.922;2023-04-25T18:57:03;8.68;;;4.80;;